Time;durP1;ratioP1;P1;durP2;ratioP2;P2;SDS_P1;SDS_P2;PMS_P1;PMS_P2;Temp;Humidity;BMP_temperature;BMP_pressure;BME280_temperature;BME280_humidity;BME280_pressure;Samples;Min_cycle;Max_cycle;Signal;HPM_P1;HPM_P2
2021/11/09 00:02:17;;;;;;;;;;;3.40;89.30;;;;;;5005652;28;20375;-75
2021/11/09 00:04:49;;;;;;;;;;;3.40;89.20;;;;;;4975306;28;19926;-79
2021/11/09 00:12:26;;;;;;;;;;;3.40;89.80;;;;;;4989205;28;20341;-81
2021/11/09 00:14:57;;;;;;;;;;;3.40;90.50;;;;;;4989500;28;19977;-79
2021/11/09 00:17:24;;;;;;;;;;;3.50;90.30;;;;;;4990391;28;19969;-77
2021/11/09 00:19:52;;;;;;;;;;;3.50;90.60;;;;;;4973818;28;20028;-79
2021/11/09 00:22:19;;;;;;;;;;;3.60;90.90;;;;;;4989361;28;19961;-77
2021/11/09 00:24:46;;;;;;;;;;;3.70;90.80;;;;;;4974058;28;19985;-75
2021/11/09 00:27:13;;;;;;;;;;;3.70;90.60;;;;;;4989600;28;20297;-75
2021/11/09 00:29:40;;;;;;;;;;;3.70;90.60;;;;;;4973777;28;19922;-77
2021/11/09 00:32:08;;;;;;;;;;;3.70;90.40;;;;;;4989303;28;20386;-80
2021/11/09 00:34:35;;;;;;;;;;;3.60;90.50;;;;;;5005638;28;20017;-79
2021/11/09 00:37:03;;;;;;;;;;;3.60;90.40;;;;;;5005430;28;19929;-75
2021/11/09 00:39:30;;;;;;;;;;;3.50;90.10;;;;;;4973625;28;19922;-75
2021/11/09 00:41:58;;;;;;;;;;;3.50;90.10;;;;;;4974226;28;20401;-76
2021/11/09 00:44:25;;;;;;;;;;;3.50;90.10;;;;;;4974700;28;20504;-79
2021/11/09 00:46:52;;;;;;;;;;;3.70;90.60;;;;;;5006003;28;19968;-81
2021/11/09 00:49:20;;;;;;;;;;;4.00;90.90;;;;;;5005202;28;20378;-77
2021/11/09 00:51:48;;;;;;;;;;;4.20;90.80;;;;;;4973943;28;19926;-80
2021/11/09 00:54:16;;;;;;;;;;;4.50;90.60;;;;;;5005806;28;19922;-75
2021/11/09 00:56:43;;;;;;;;;;;4.80;90.10;;;;;;5004358;28;20422;-75
2021/11/09 00:59:10;;;;;;;;;;;5.00;89.10;;;;;;5005467;28;19998;-79
2021/11/09 01:01:37;;;;;;;;;;;5.20;88.00;;;;;;5003293;28;19926;-77
2021/11/09 01:04:05;;;;;;;;;;;5.30;87.20;;;;;;4989303;28;19937;-77
2021/11/09 01:06:32;;;;;;;5.25;3.80;;;5.40;86.50;;;;;;4973286;28;19922;-74
2021/11/09 01:09:00;;;;;;;7.10;5.22;;;5.50;86.00;;;;;;4971143;28;20907;-80
2021/11/09 01:11:27;;;;;;;6.78;5.40;;;5.50;85.50;;;;;;4971304;28;20494;-80
2021/11/09 01:13:54;;;;;;;7.70;5.10;;;5.60;85.00;;;;;;4972350;28;20413;-74
2021/11/09 01:16:22;;;;;;;7.38;4.82;;;5.70;84.50;;;;;;4971518;28;20876;-75
2021/11/09 01:18:52;;;;;;;6.25;4.75;;;5.80;84.00;;;;;;4970579;28;20903;-80
2021/11/09 01:21:20;;;;;;;7.38;5.18;;;5.90;83.30;;;;;;4971681;28;20399;-77
2021/11/09 01:23:51;;;;;;;6.70;5.00;;;6.00;82.50;;;;;;4970028;28;20411;-80
2021/11/09 01:26:18;;;;;;;7.43;4.55;;;6.10;82.00;;;;;;5003767;28;20426;-77
2021/11/09 01:28:48;;;;;;;6.78;4.72;;;6.10;81.30;;;;;;4970519;28;20415;-77
2021/11/09 01:31:16;;;;;;;5.57;4.10;;;6.20;80.90;;;;;;4971193;28;20438;-75
2021/11/09 01:33:43;;;;;;;6.82;4.40;;;6.20;80.40;;;;;;4972125;28;20902;-75
2021/11/09 01:36:11;;;;;;;5.82;4.20;;;6.20;80.40;;;;;;4953968;28;20542;-76
2021/11/09 01:38:38;;;;;;;5.57;4.22;;;6.30;79.40;;;;;;4970681;28;20423;-75
2021/11/09 01:41:08;;;;;;;5.33;3.93;;;6.30;79.60;;;;;;4987358;28;20489;-77
2021/11/09 01:43:37;;;;;;;4.75;4.22;;;6.30;79.30;;;;;;4971711;28;20403;-80
2021/11/09 01:46:06;;;;;;;4.90;4.00;;;6.30;78.90;;;;;;4970400;28;20406;-79
2021/11/09 01:48:34;;;;;;;4.20;3.45;;;6.30;78.70;;;;;;4970791;28;20414;-79
2021/11/09 01:51:05;;;;;;;4.90;3.45;;;6.30;78.40;;;;;;4960992;28;20416;-79
2021/11/09 01:53:35;;;;;;;3.55;3.25;;;6.40;78.00;;;;;;4955838;28;20130;-76
2021/11/09 01:56:06;;;;;;;4.63;3.55;;;6.40;78.00;;;;;;4971334;28;20051;-76
2021/11/09 01:58:35;;;;;;;5.40;3.63;;;6.30;78.00;;;;;;4971504;28;20067;-76
2021/11/09 02:01:13;;;;;;;3.78;2.78;;;6.30;78.00;;;;;;4972034;28;20043;-77
2021/11/09 02:03:45;;;;;;;5.18;3.25;;;6.20;77.70;;;;;;4971995;28;20120;-75
2021/11/09 02:06:13;;;;;;;;;;;6.20;77.60;;;;;;4971082;28;20094;-79
2021/11/09 02:08:41;;;;;;;5.07;3.35;;;6.30;76.70;;;;;;5003026;28;19922;-79
2021/11/09 02:11:10;;;;;;;4.18;3.03;;;6.30;76.60;;;;;;4972263;28;20474;-80
2021/11/09 02:13:39;;;;;;;5.60;3.30;;;6.30;77.00;;;;;;4971237;28;20145;-79
2021/11/09 02:16:06;;;;;;;4.90;3.05;;;6.30;77.10;;;;;;4972098;28;20042;-79
2021/11/09 02:18:33;;;;;;;5.65;2.88;;;6.30;76.30;;;;;;4970953;28;20053;-79
2021/11/09 02:21:11;;;;;;;4.55;3.45;;;6.30;77.10;;;;;;4969767;28;20849;-80
2021/11/09 02:23:41;;;;;;;5.00;3.47;;;6.40;76.10;;;;;;4985004;28;20531;-76
2021/11/09 02:26:12;;;;;;;;;;;6.40;76.30;;;;;;4972390;28;20133;-80
2021/11/09 02:28:40;;;;;;;;;;;6.40;75.40;;;;;;5019216;28;20020;-79
2021/11/09 02:31:07;;;;;;;;;;;6.40;75.20;;;;;;4987686;28;19929;-75
2021/11/09 02:33:35;;;;;;;;;;;6.50;75.00;;;;;;4972401;28;19926;-79
2021/11/09 02:36:02;;;;;;;;;;;6.50;74.80;;;;;;4985818;28;19965;-75
2021/11/09 02:38:29;;;;;;;;;;;6.60;74.30;;;;;;4972045;28;19945;-77
2021/11/09 02:40:56;;;;;;;;;;;6.60;74.30;;;;;;4971984;28;19930;-80
2021/11/09 02:43:24;;;;;;;;;;;6.70;73.50;;;;;;4988451;28;19973;-77
2021/11/09 02:48:34;;;;;;;;;;;6.80;73.30;;;;;;5003907;28;20450;-80
2021/11/09 02:51:07;;;;;;;;;;;6.80;72.60;;;;;;5003103;28;19929;-75
2021/11/09 02:53:39;;;;;;;;;;;6.80;72.60;;;;;;4972669;28;20330;-79
2021/11/09 02:58:49;;;;;;;;;;;6.80;72.20;;;;;;5003488;28;19936;-77
2021/11/09 03:04:00;;;;;;;;;;;6.80;72.20;;;;;;5003801;28;19922;-80
2021/11/09 03:06:45;;;;;;;;;;;6.70;72.30;;;;;;4971086;28;20449;-80
2021/11/09 03:09:19;;;;;;;;;;;6.60;72.50;;;;;;5001913;28;19928;-78
2021/11/09 03:11:58;;;;;;;;;;;6.60;72.30;;;;;;4955155;28;19928;-74
2021/11/09 03:14:26;;;;;;;;;;;6.60;72.30;;;;;;5003605;28;19922;-80
2021/11/09 03:16:55;;;;;;;;;;;6.60;72.30;;;;;;5003441;28;20401;-77
2021/11/09 03:19:35;;;;;;;;;;;6.50;74.50;;;;;;4975488;28;19922;-80
2021/11/09 03:47:10;;;;;;;;;;;5.90;74.90;;;;;;4970392;28;20302;-76
2021/11/09 03:49:38;;;;;;;;;;;5.90;74.20;;;;;;4974151;28;19922;-80
2021/11/09 03:52:10;;;;;;;;;;;6.00;73.90;;;;;;5022779;28;19980;-77
2021/11/09 03:54:37;;;;;;;;;;;6.00;73.70;;;;;;4973144;28;19922;-76
2021/11/09 03:57:10;;;;;;;;;;;6.00;73.60;;;;;;4990308;28;19922;-75
2021/11/09 03:59:45;;;;;;;;;;;6.00;73.60;;;;;;5006922;28;19922;-76
2021/11/09 04:04:56;;;;;;;;;;;6.10;73.10;;;;;;5005828;28;19922;-75
2021/11/09 05:09:38;;;;;;;;;;;6.40;69.80;;;;;;4955722;28;19973;-80
2021/11/09 05:12:05;;;;;;;;;;;6.40;69.30;;;;;;4971519;28;20366;-77
2021/11/09 05:14:32;;;;;;;;;;;6.40;68.80;;;;;;4963936;28;20028;-79
2021/11/09 05:17:01;;;;;;;;;;;6.40;68.70;;;;;;5004571;28;19982;-79
2021/11/09 05:19:28;;;;;;;;;;;6.40;69.30;;;;;;4988570;28;19937;-75
2021/11/09 05:21:55;;;;;;;;;;;6.30;69.60;;;;;;5003453;28;20413;-75
2021/11/09 05:24:22;;;;;;;;;;;6.30;69.50;;;;;;4972132;28;20012;-79
2021/11/09 05:26:49;;;;;;;;;;;6.30;69.50;;;;;;4988845;28;19953;-77
2021/11/09 05:29:16;;;;;;;;;;;6.30;69.10;;;;;;4973415;28;19926;-79
2021/11/09 05:31:44;;;;;;;;;;;6.30;68.90;;;;;;4987910;28;19922;-79
2021/11/09 05:34:11;;;;;;;;;;;6.30;69.00;;;;;;5004332;28;19988;-76
2021/11/09 05:36:41;;;;;;;;;;;6.30;68.80;;;;;;4987912;28;19930;-79
2021/11/09 05:41:38;;;;;;;;;;;6.30;68.70;;;;;;5002788;28;19933;-77
2021/11/09 05:44:06;;;;;;;;;;;6.30;68.80;;;;;;4972247;28;19944;-79
2021/11/09 05:46:35;;;;;;;9.55;3.30;;;6.30;68.20;;;;;;5004043;28;20020;-74
2021/11/09 05:49:03;;;;;;;2.92;2.13;;;6.30;68.40;;;;;;4971734;28;20035;-76
2021/11/09 05:51:30;;;;;;;2.88;2.30;;;6.30;68.70;;;;;;4969231;28;20912;-77
2021/11/09 05:54:00;;;;;;;4.00;2.63;;;6.20;68.90;;;;;;4969211;28;20539;-79
2021/11/09 05:56:28;;;;;;;3.60;2.50;;;6.20;69.40;;;;;;4969479;28;20399;-76
2021/11/09 05:58:55;;;;;;;3.28;2.30;;;6.20;69.10;;;;;;4953828;28;20434;-79
2021/11/09 06:01:22;;;;;;;3.83;2.55;;;6.20;69.10;;;;;;4970151;28;20398;-79
2021/11/09 06:03:50;;;;;;;2.80;2.10;;;6.20;69.20;;;;;;4968310;28;20414;-77
2021/11/09 06:06:17;;;;;;;3.15;2.47;;;6.30;68.60;;;;;;4970317;28;20395;-80
2021/11/09 06:08:46;;;;;;;3.50;2.40;;;6.30;68.60;;;;;;4969981;28;20409;-75
2021/11/09 06:11:13;;;;;;;3.45;2.28;;;6.30;68.30;;;;;;4953989;28;20418;-76
2021/11/09 06:13:40;;;;;;;2.70;2.13;;;6.30;68.00;;;;;;4969470;28;20418;-75
2021/11/09 06:16:07;;;;;;;3.05;2.20;;;6.30;67.70;;;;;;4969817;28;20413;-80
2021/11/09 06:18:34;;;;;;;4.20;2.40;;;6.30;67.60;;;;;;4969604;28;20503;-80
2021/11/09 06:21:02;;;;;;;3.15;2.50;;;6.40;67.50;;;;;;4986635;28;20486;-78
2021/11/09 06:23:29;;;;;;;4.43;2.40;;;6.40;67.40;;;;;;4969185;28;20506;-81
2021/11/09 06:25:56;;;;;;;3.17;2.35;;;6.40;67.80;;;;;;4954161;28;20447;-77
2021/11/09 06:28:23;;;;;;;3.60;2.50;;;6.40;67.70;;;;;;4970713;28;20417;-76
2021/11/09 06:30:52;;;;;;;5.88;3.03;;;6.40;67.90;;;;;;5001931;28;20415;-80
2021/11/09 06:33:21;;;;;;;5.30;3.25;;;6.30;68.10;;;;;;4971773;28;20407;-77
2021/11/09 06:35:49;;;;;;;4.68;3.63;;;6.30;68.20;;;;;;4968683;28;20420;-79
2021/11/09 06:38:16;;;;;;;4.53;3.60;;;6.30;68.10;;;;;;4969856;28;20414;-75
2021/11/09 06:40:43;;;;;;;4.57;3.38;;;6.40;67.40;;;;;;4969525;28;20411;-75
2021/11/09 06:43:10;;;;;;;4.35;3.00;;;6.40;67.40;;;;;;4970103;28;20399;-77
2021/11/09 06:45:37;;;;;;;3.53;2.73;;;6.40;67.40;;;;;;4985636;28;20400;-75
2021/11/09 06:48:05;;;;;;;3.83;2.63;;;6.40;67.40;;;;;;4969575;28;20409;-77
2021/11/09 06:50:32;;;;;;;3.92;2.63;;;6.40;67.40;;;;;;4968795;28;20767;-77
2021/11/09 06:53:00;;;;;;;3.75;2.72;;;6.40;67.30;;;;;;4973325;28;20894;-79
2021/11/09 06:55:28;;;;;;;4.38;2.55;;;6.40;66.80;;;;;;4973162;28;20403;-76
2021/11/09 06:57:55;;;;;;;4.78;2.80;;;6.40;67.10;;;;;;4974647;28;20418;-80
2021/11/09 07:00:23;;;;;;;3.78;2.58;;;6.40;66.90;;;;;;4973353;28;20445;-76
2021/11/09 07:02:51;;;;;;;3.97;2.72;;;6.50;66.50;;;;;;4953258;28;21078;-78
2021/11/09 07:05:19;;;;;;;3.35;2.50;;;6.50;66.30;;;;;;4982639;28;20415;-79
2021/11/09 07:07:46;;;;;;;4.30;2.65;;;6.50;66.30;;;;;;4987684;28;20559;-77
2021/11/09 07:10:15;;;;;;;3.50;2.50;;;6.50;66.00;;;;;;4973351;28;20414;-77
2021/11/09 07:12:43;;;;;;;4.43;2.22;;;6.50;66.30;;;;;;4969650;28;20407;-76
2021/11/09 07:15:12;;;;;;;3.10;2.03;;;6.60;65.80;;;;;;4984839;28;20941;-80
2021/11/09 07:17:39;;;;;;;3.25;2.10;;;6.70;65.20;;;;;;4953237;28;20958;-76
2021/11/09 07:20:10;;;;;;;4.03;2.47;;;6.80;65.10;;;;;;4972283;28;20458;-77
2021/11/09 07:22:37;;;;;;;2.67;2.03;;;7.10;64.30;;;;;;4988621;28;20435;-80
2021/11/09 07:25:07;;;;;;;3.72;1.98;;;7.30;63.20;;;;;;4955343;28;20421;-76
2021/11/09 07:27:34;;;;;;;3.72;2.35;;;7.50;62.50;;;;;;4971282;28;20391;-76
2021/11/09 07:30:03;;;;;;;5.35;2.17;;;7.60;62.80;;;;;;4990572;28;20503;-77
2021/11/09 07:32:31;;;;;;;3.22;1.85;;;7.80;61.90;;;;;;4976160;28;20098;-80
2021/11/09 07:34:58;;;;;;;2.42;1.88;;;7.90;61.70;;;;;;4974337;28;20059;-79
2021/11/09 07:37:28;;;;;;;2.20;1.60;;;8.10;60.70;;;;;;4990106;28;20058;-76
2021/11/09 07:39:55;;;;;;;4.97;1.83;;;8.30;60.10;;;;;;4974538;28;20525;-81
2021/11/09 07:42:22;;;;;;;4.18;1.83;;;8.30;60.20;;;;;;4973916;28;20046;-79
2021/11/09 07:44:51;;;;;;;3.42;1.75;;;8.20;60.30;;;;;;5006598;28;20145;-76
2021/11/09 07:47:22;;;;;;;6.13;1.65;;;8.20;60.40;;;;;;4974152;28;20047;-79
2021/11/09 07:49:50;;;;;;;2.15;1.85;;;8.40;59.50;;;;;;4957110;28;20291;-79
2021/11/09 07:52:17;;;;;;;2.65;1.60;;;8.60;59.60;;;;;;5005435;28;20050;-75
2021/11/09 07:54:48;;;;;;;2.92;1.83;;;8.70;59.20;;;;;;4973490;28;20039;-79
2021/11/09 07:57:16;;;;;;;2.97;2.00;;;8.80;59.00;;;;;;4988959;28;20043;-79
2021/11/09 08:04:59;;;;;;;4.28;1.67;;;9.10;57.70;;;;;;4973313;28;20374;-76
2021/11/09 08:07:53;;;;;;;3.55;1.88;;;9.20;57.00;;;;;;5006959;28;20074;-76
2021/11/09 08:10:14;;;;;;;3.45;2.03;;;9.20;56.70;;;;;;4974389;28;20077;-74
2021/11/09 08:12:41;;;;;;;3.30;2.42;;;9.10;57.90;;;;;;4973444;28;20125;-78
2021/11/09 08:15:08;;;;;;;3.47;2.63;;;9.10;57.00;;;;;;4973425;28;20372;-77
2021/11/09 08:17:35;;;;;;;4.07;1.95;;;9.10;57.30;;;;;;4990456;28;20511;-77
2021/11/09 08:20:03;;;;;;;6.75;2.00;;;9.10;57.70;;;;;;4957413;28;20071;-76
2021/11/09 08:22:32;;;;;;;3.22;1.83;;;9.00;57.30;;;;;;4974644;28;20133;-77
2021/11/09 08:24:59;;;;;;;2.83;2.13;;;8.90;57.70;;;;;;4972795;28;20500;-79
2021/11/09 08:27:28;;;;;;;5.05;2.70;;;8.90;57.70;;;;;;4989274;28;20503;-75
2021/11/09 08:29:57;;;;;;;3.97;2.40;;;8.80;58.20;;;;;;5003726;28;20416;-75
2021/11/09 08:32:24;;;;;;;2.72;2.10;;;8.80;57.20;;;;;;4974120;28;20047;-79
2021/11/09 08:34:51;;;;;;;3.58;2.25;;;8.90;57.30;;;;;;5005855;28;20055;-79
2021/11/09 08:37:20;;;;;;;3.05;2.00;;;9.00;57.30;;;;;;4973713;28;20057;-79
2021/11/09 08:39:47;;;;;;;6.07;1.95;;;9.20;57.40;;;;;;4989722;28;20066;-79
2021/11/09 08:47:48;;;;;;;2.83;2.30;;;9.60;56.80;;;;;;4962586;28;20419;-77
2021/11/09 08:50:17;;;;;;;3.53;2.17;;;9.90;56.50;;;;;;5001841;28;20070;-80
2021/11/09 08:52:46;;;;;;;3.35;1.88;;;10.10;56.10;;;;;;4975951;28;20050;-79
2021/11/09 08:55:42;;;;;;;2.05;1.75;;;10.30;55.50;;;;;;4969964;28;20037;-79
2021/11/09 08:58:22;;;;;;;3.13;2.00;;;10.40;56.20;;;;;;4972633;28;20126;-75
2021/11/09 09:01:21;;;;;;;2.58;1.38;;;10.70;53.00;;;;;;4974120;28;20399;-79
2021/11/09 09:06:34;;;;;;;3.05;1.33;;;11.30;53.50;;;;;;4975616;28;20010;-77
2021/11/09 09:09:02;;;;;;;2.72;1.80;;;11.60;53.60;;;;;;4948026;29;20417;-79
2021/11/09 09:11:33;;;;;;;3.95;2.00;;;11.90;53.80;;;;;;4962272;28;20053;-78
2021/11/09 09:14:02;;;;;;;3.35;1.98;;;12.20;54.50;;;;;;4944120;28;20066;-75
2021/11/09 09:16:31;;;;;;;7.68;4.18;;;12.40;53.30;;;;;;4970332;28;20134;-79
2021/11/09 09:19:00;;;;;;;3.20;2.30;;;12.70;55.40;;;;;;4974681;28;20102;-79
2021/11/09 09:24:02;;;;;;;3.30;2.45;;;13.10;55.90;;;;;;4975592;28;20129;-79
2021/11/09 09:26:52;;;;;;;2.70;1.92;;;13.10;55.90;;;;;;4986047;28;20086;-74
2021/11/09 09:29:34;;;;;;;2.63;1.88;;;13.00;55.20;;;;;;4962076;28;20047;-79
2021/11/09 09:57:01;;;;;;;5.03;3.53;;;11.10;63.90;;;;;;4964443;28;20058;-78
2021/11/09 09:59:32;;;;;;;4.15;3.25;;;10.90;62.70;;;;;;5006161;28;20400;-79
2021/11/09 10:02:12;;;;;;;6.43;2.90;;;10.70;63.30;;;;;;4994624;28;20054;-75
2021/11/09 10:04:46;;;;;;;4.45;3.33;;;10.80;63.90;;;;;;4984595;28;20134;-79
2021/11/09 10:07:30;;;;;;;3.45;2.92;;;10.70;63.60;;;;;;4995553;28;20039;-78
2021/11/09 10:09:58;;;;;;;6.07;3.20;;;10.60;64.90;;;;;;4957671;28;20511;-74
2021/11/09 10:12:32;;;;;;;4.63;3.03;;;10.80;63.40;;;;;;5002134;28;20538;-75
2021/11/09 10:15:05;;;;;;;2.60;2.33;;;10.70;62.90;;;;;;4968961;28;20050;-74
2021/11/09 10:17:33;;;;;;;2.95;2.55;;;10.80;63.50;;;;;;4968983;28;20054;-77
2021/11/09 10:20:16;;;;;;;3.78;2.78;;;11.00;63.90;;;;;;4977180;28;20051;-80
2021/11/09 10:22:47;;;;;;;4.40;2.80;;;11.00;63.30;;;;;;4996815;28;20495;-75
2021/11/09 10:25:16;;;;;;;3.15;2.85;;;11.10;62.80;;;;;;4969902;28;20037;-79
2021/11/09 10:27:45;;;;;;;4.78;2.53;;;11.20;61.60;;;;;;4969141;28;20049;-74
2021/11/09 10:30:23;;;;;;;3.55;2.63;;;11.20;61.70;;;;;;4993194;28;20053;-75
2021/11/09 10:32:50;;;;;;;5.68;2.75;;;11.20;61.60;;;;;;5000191;28;20458;-76
2021/11/09 10:35:20;;;;;;;4.20;2.83;;;11.20;61.30;;;;;;4960552;28;20046;-79
2021/11/09 10:37:54;;;;;;;3.60;2.80;;;11.10;60.90;;;;;;4971669;28;20046;-75
2021/11/09 10:40:48;;;;;;;2.78;2.35;;;11.10;61.40;;;;;;4957039;28;20042;-80
2021/11/09 10:43:17;;;;;;;4.18;2.22;;;11.10;60.90;;;;;;4972668;28;20061;-75
2021/11/09 10:45:44;;;;;;;3.80;2.88;;;11.10;61.10;;;;;;4948214;28;20053;-78
2021/11/09 10:48:15;;;;;;;4.57;2.80;;;11.10;61.20;;;;;;4971979;28;20047;-79
2021/11/09 10:50:51;;;;;;;5.32;2.80;;;11.10;61.50;;;;;;4970926;28;20074;-78
2021/11/09 10:53:33;;;;;;;3.30;2.35;;;11.20;61.60;;;;;;4971125;28;20050;-75
2021/11/09 11:04:10;;;;;;;5.30;3.08;;;11.40;61.00;;;;;;4971382;28;20070;-75
2021/11/09 11:06:41;;;;;;;3.22;2.40;;;11.40;60.70;;;;;;4970167;28;20114;-75
2021/11/09 11:09:16;;;;;;;3.35;2.85;;;11.50;61.00;;;;;;4972002;28;20031;-79
2021/11/09 11:12:05;;;;;;;4.90;2.60;;;11.50;60.40;;;;;;4971068;28;20126;-74
2021/11/09 11:14:34;;;;;;;4.90;2.67;;;11.40;60.30;;;;;;4986616;28;20066;-79
2021/11/09 11:17:09;;;;;;;7.72;5.68;;;11.40;61.00;;;;;;4971035;28;20105;-78
2021/11/09 11:19:42;;;;;;;5.07;3.20;;;11.50;61.20;;;;;;4971832;28;20043;-79
2021/11/09 11:22:14;;;;;;;;;;;11.40;61.10;;;;;;4987210;28;20047;-79
2021/11/09 11:24:43;;;;;;;4.43;2.65;;;11.30;60.60;;;;;;4970902;28;19926;-79
2021/11/09 11:27:13;;;;;;;2.92;2.40;;;11.30;61.00;;;;;;4971001;28;20500;-79
2021/11/09 11:29:41;;;;;;;5.82;3.00;;;11.20;61.90;;;;;;4986596;28;20495;-79
2021/11/09 11:32:11;;;;;;;3.00;2.67;;;11.20;61.90;;;;;;4970889;28;20499;-79
2021/11/09 11:34:39;;;;;;;3.50;2.90;;;11.20;62.00;;;;;;4954462;28;20054;-79
2021/11/09 11:37:07;;;;;;;3.22;2.90;;;11.20;62.20;;;;;;4986729;28;20554;-79
2021/11/09 11:39:36;;;;;;;3.35;2.72;;;11.20;62.40;;;;;;4973580;28;20054;-79
2021/11/09 11:42:11;;;;;;;4.15;2.28;;;11.20;62.20;;;;;;4974132;28;20059;-79
2021/11/09 11:44:41;;;;;;;3.63;2.83;;;11.20;62.60;;;;;;4974465;28;20066;-79
2021/11/09 11:47:18;;;;;;;4.30;3.15;;;11.30;62.80;;;;;;4972961;28;20474;-79
2021/11/09 11:49:54;;;;;;;3.65;3.30;;;11.30;62.70;;;;;;4974435;28;20117;-79
2021/11/09 11:52:27;;;;;;;3.50;2.95;;;11.30;63.10;;;;;;4972774;28;20046;-75
2021/11/09 11:55:04;;;;;;;3.60;2.95;;;11.20;63.20;;;;;;4989583;28;20121;-79
2021/11/09 11:57:47;;;;;;;3.88;2.63;;;11.20;63.20;;;;;;4973784;28;20117;-79
2021/11/09 12:00:37;;;;;;;;;;;11.30;63.50;;;;;;4988743;28;20411;-75
2021/11/09 12:03:23;;;;;;;4.18;2.50;;;11.30;64.30;;;;;;5005548;28;19931;-79
2021/11/09 12:05:52;;;;;;;5.70;3.58;;;11.30;64.10;;;;;;4940346;28;20051;-75
2021/11/09 12:08:40;;;;;;;3.65;3.03;;;11.30;64.40;;;;;;4974253;28;20403;-79
2021/11/09 12:11:34;;;;;;;5.15;3.65;;;11.30;64.20;;;;;;4973249;28;20059;-78
2021/11/09 12:14:10;;;;;;;4.85;3.40;;;11.30;64.10;;;;;;4973373;28;20054;-75
2021/11/09 12:16:52;;;;;;;3.88;3.25;;;11.30;64.30;;;;;;4988352;28;20052;-79
2021/11/09 12:19:34;;;;;;;9.32;4.40;;;11.30;64.70;;;;;;4974051;28;20039;-79
2021/11/09 12:22:11;;;;;;;4.43;3.65;;;11.30;64.80;;;;;;4988840;28;20074;-79
2021/11/09 12:25:05;;;;;;;6.35;4.68;;;11.30;65.10;;;;;;4972932;28;20505;-75
2021/11/09 12:27:47;;;;;;;;;;;11.30;64.40;;;;;;4972232;28;20043;-79
2021/11/09 12:30:33;;;;;;;7.72;4.70;;;11.20;64.20;;;;;;4972766;28;19922;-79
2021/11/09 12:33:25;;;;;;;6.90;4.35;;;11.20;64.50;;;;;;5003454;28;20302;-79
2021/11/09 12:36:10;;;;;;;6.85;4.78;;;11.20;64.70;;;;;;4971324;28;20054;-79
2021/11/09 12:38:37;;;;;;;6.90;5.15;;;11.20;64.80;;;;;;4972874;28;20522;-76
2021/11/09 12:41:20;;;;;;;5.18;4.25;;;11.20;65.10;;;;;;4974514;28;20045;-76
2021/11/09 12:43:53;;;;;;;6.30;4.40;;;11.10;64.90;;;;;;4973296;28;20051;-78
2021/11/09 12:46:28;;;;;;;8.40;6.25;;;11.10;65.10;;;;;;4971802;28;20034;-76
2021/11/09 12:49:02;;;;;;;7.25;5.47;;;11.00;65.80;;;;;;4971295;28;20133;-76
2021/11/09 12:51:39;;;;;;;5.85;4.40;;;11.00;67.40;;;;;;4972708;28;20050;-76
2021/11/09 12:54:13;;;;;;;5.82;3.90;;;11.00;67.40;;;;;;4964277;28;20046;-75
2021/11/09 12:56:52;;;;;;;7.20;4.00;;;11.00;67.80;;;;;;4972377;28;20046;-76
2021/11/09 12:59:30;;;;;;;6.93;4.72;;;11.00;67.40;;;;;;4973407;28;20073;-77
2021/11/09 13:02:07;;;;;;;6.80;5.38;;;10.90;67.50;;;;;;4957644;28;20043;-79
2021/11/09 13:07:33;;;;;;;5.80;4.35;;;10.90;69.30;;;;;;4972717;28;20117;-79
2021/11/09 13:10:08;;;;;;;7.50;4.15;;;10.90;69.00;;;;;;4972789;28;20094;-79
2021/11/09 13:12:37;;;;;;;6.32;4.90;;;10.90;69.50;;;;;;4971610;28;20051;-76
2021/11/09 13:15:10;;;;;;;5.50;4.45;;;10.90;69.40;;;;;;4973663;28;20052;-76
2021/11/09 13:17:45;;;;;;;4.15;3.72;;;10.90;69.10;;;;;;4973196;28;20043;-78
2021/11/09 13:23:02;;;;;;;9.15;5.07;;;10.90;69.70;;;;;;4973030;28;20125;-77
2021/11/09 13:25:53;;;;;;;6.75;4.25;;;11.00;69.60;;;;;;4972896;28;20097;-78
2021/11/09 13:28:24;;;;;;;6.80;4.75;;;11.00;71.10;;;;;;4971723;28;20039;-79
2021/11/09 13:30:58;;;;;;;6.80;4.90;;;11.00;70.80;;;;;;4971568;28;20070;-75
2021/11/09 13:33:27;;;;;;;7.55;6.68;;;11.10;70.60;;;;;;4970673;28;20510;-79
2021/11/09 13:35:55;;;;;;;7.50;6.40;;;11.10;69.10;;;;;;4972264;28;20129;-76
2021/11/09 13:38:25;;;;;;;8.85;5.80;;;11.10;70.20;;;;;;4971761;28;20133;-80
2021/11/09 13:41:01;;;;;;;7.63;5.90;;;11.10;70.20;;;;;;4972370;28;20471;-75
2021/11/09 13:43:40;;;;;;;8.10;6.40;;;11.10;70.40;;;;;;4972159;28;20117;-80
2021/11/09 13:46:11;;;;;;;8.75;5.63;;;11.10;70.10;;;;;;4988322;28;20512;-79
2021/11/09 13:48:40;;;;;;;6.78;5.60;;;11.10;70.30;;;;;;4971965;28;20038;-78
2021/11/09 13:51:10;;;;;;;8.77;6.30;;;11.10;71.50;;;;;;4988178;28;20050;-75
2021/11/09 13:53:41;;;;;;;8.02;6.57;;;11.20;72.40;;;;;;4973313;28;20077;-79
2021/11/09 13:56:12;;;;;;;13.05;8.02;;;11.20;73.40;;;;;;4972406;28;20129;-75
2021/11/09 13:58:51;;;;;;;10.43;7.97;;;11.30;73.60;;;;;;5003768;28;20047;-79
2021/11/09 14:01:52;;;;;;;11.32;9.02;;;11.30;74.10;;;;;;4971074;28;20555;-79
2021/11/09 14:04:52;;;;;;;10.95;8.05;;;11.30;74.70;;;;;;4954919;28;20043;-76
2021/11/09 14:18:24;;;;;;;10.02;7.57;;;11.20;76.20;;;;;;5003397;28;20146;-80
2021/11/09 14:20:55;;;;;;;11.15;7.85;;;11.10;77.00;;;;;;4972008;28;20046;-79
2021/11/09 14:23:32;;;;;;;10.25;7.40;;;11.00;76.50;;;;;;4987691;28;20108;-79
2021/11/09 14:26:22;;;;;;;13.75;8.43;;;11.00;76.90;;;;;;4954997;28;20053;-79
2021/11/09 14:28:55;;;;;;;14.93;9.82;;;10.90;77.50;;;;;;4971578;28;20165;-76
2021/11/09 14:31:33;;;;;;;14.18;9.23;;;10.80;77.50;;;;;;4971518;28;20047;-76
2021/11/09 14:34:16;;;;;;;12.55;7.82;;;10.80;77.70;;;;;;4971239;28;20050;-76
2021/11/09 14:36:47;;;;;;;13.48;8.02;;;10.70;77.80;;;;;;4971334;28;20050;-76
2021/11/09 14:39:19;;;;;;;10.27;7.60;;;10.70;78.40;;;;;;4971211;28;20049;-76
2021/11/09 14:41:58;;;;;;;10.18;8.60;;;10.60;78.10;;;;;;4954810;28;20042;-80
2021/11/09 14:44:25;;;;;;;11.23;8.40;;;10.60;78.00;;;;;;4951155;28;20043;-75
2021/11/09 14:46:56;;;;;;;11.52;8.48;;;10.50;77.90;;;;;;4986686;28;20046;-79
2021/11/09 14:49:38;;;;;;;9.93;7.32;;;10.50;77.90;;;;;;4972422;28;20039;-76
2021/11/09 14:52:08;;;;;;;9.32;6.40;;;10.50;78.40;;;;;;4970861;28;20043;-75
2021/11/09 14:54:36;;;;;;;7.35;5.03;;;10.50;77.50;;;;;;4954573;28;20082;-76
2021/11/09 14:57:06;;;;;;;7.82;5.07;;;10.50;75.30;;;;;;4970976;28;20047;-80
2021/11/09 14:59:34;;;;;;;7.32;5.00;;;10.40;74.90;;;;;;4971689;28;20121;-79
2021/11/09 15:02:06;;;;;;;8.95;6.88;;;10.40;75.20;;;;;;4987139;28;20507;-76
2021/11/09 15:10:10;;;;;;;9.93;6.90;;;10.40;75.30;;;;;;4970817;28;20049;-80
2021/11/09 15:13:08;;;;;;;14.25;7.43;;;10.40;76.50;;;;;;4973128;28;20130;-75
2021/11/09 15:29:16;;;;;;;10.27;6.78;;;10.20;78.30;;;;;;4975635;28;20038;-75
2021/11/09 15:32:08;;;;;;;10.45;7.72;;;10.20;78.00;;;;;;4975843;28;20055;-80
2021/11/09 15:39:51;;;;;;;12.15;6.63;;;10.20;78.30;;;;;;4974555;28;20046;-79
2021/11/09 15:42:18;;;;;;;9.60;6.55;;;10.20;78.20;;;;;;4989127;28;20061;-76
2021/11/09 15:44:45;;;;;;;8.88;6.20;;;10.20;78.20;;;;;;5006135;28;20039;-79
2021/11/09 15:47:13;;;;;;;8.77;6.15;;;10.20;78.10;;;;;;4973296;28;20125;-80
2021/11/09 15:49:41;;;;;;;8.10;6.60;;;10.10;78.20;;;;;;4974101;28;20142;-76
2021/11/09 15:52:08;;;;;;;10.35;7.72;;;10.10;78.20;;;;;;4989420;28;20071;-80
2021/11/09 15:54:48;;;;;;;13.27;8.45;;;10.10;78.20;;;;;;4974190;28;20047;-73
2021/11/09 15:57:15;;;;;;;12.30;9.13;;;10.10;78.30;;;;;;4975528;28;20085;-79
2021/11/09 15:59:43;;;;;;;16.20;9.68;;;10.10;78.50;;;;;;4973903;28;20101;-79
2021/11/09 16:02:10;;;;;;;15.98;11.00;;;10.10;79.10;;;;;;4974822;28;20043;-79
2021/11/09 16:04:41;;;;;;;17.48;13.25;;;10.00;79.20;;;;;;4973869;28;20047;-79
2021/11/09 16:07:09;;;;;;;16.25;13.10;;;10.00;79.50;;;;;;4989558;28;20081;-80
2021/11/09 16:09:37;;;;;;;20.90;14.30;;;9.90;79.50;;;;;;5005513;28;20049;-76
2021/11/09 16:12:05;;;;;;;15.73;11.68;;;9.90;79.40;;;;;;4989198;28;20538;-79
2021/11/09 16:14:33;;;;;;;16.83;11.60;;;9.90;79.80;;;;;;4989945;28;20049;-74
2021/11/09 16:17:00;;;;;;;15.07;11.00;;;9.90;79.50;;;;;;4973050;28;20050;-75
2021/11/09 16:19:28;;;;;;;18.15;11.85;;;9.90;79.60;;;;;;4975131;28;20050;-79
2021/11/09 16:21:55;;;;;;;15.68;11.57;;;9.90;79.90;;;;;;5020273;28;20035;-76
2021/11/09 16:24:23;;;;;;;17.25;12.68;;;9.90;79.80;;;;;;4989412;28;20514;-80
2021/11/09 16:26:51;;;;;;;15.90;11.20;;;9.90;80.20;;;;;;4973314;28;20138;-78
2021/11/09 16:29:25;;;;;;;17.65;12.98;;;9.80;80.00;;;;;;4988568;28;20039;-79
2021/11/09 16:31:53;;;;;;;21.67;14.07;;;9.80;80.10;;;;;;4974779;28;20039;-76
2021/11/09 16:34:26;;;;;;;27.15;17.35;;;9.80;80.00;;;;;;5005475;28;20087;-79
2021/11/09 16:36:55;;;;;;;27.98;16.98;;;9.80;80.10;;;;;;4972879;28;20043;-75
2021/11/09 16:39:33;;;;;;;26.50;15.95;;;9.80;80.10;;;;;;5005410;28;20558;-80
2021/11/09 16:42:01;;;;;;;18.38;12.02;;;9.80;81.00;;;;;;5004509;28;20043;-75
2021/11/09 16:44:28;;;;;;;17.98;11.80;;;9.70;82.10;;;;;;4974294;28;20039;-74
2021/11/09 16:46:57;;;;;;;16.35;11.38;;;9.60;82.20;;;;;;4974018;28;20035;-78